createdAt,value
2018-10-17T00:00:25.964Z,39.1
2018-10-17T00:01:17.535Z,39.1
2018-10-17T00:02:05.828Z,39
2018-10-17T00:02:55.980Z,39
2018-10-17T00:03:45.986Z,39
2018-10-17T00:04:36.620Z,39
2018-10-17T00:05:26.659Z,39
2018-10-17T00:06:16.169Z,39
2018-10-17T00:07:06.652Z,39
2018-10-17T00:25:22.790Z,38.8
2018-10-17T00:26:12.747Z,38.9
2018-10-17T00:27:02.175Z,38.9
2018-10-17T00:27:52.820Z,38.8
2018-10-17T00:28:42.908Z,38.8
2018-10-17T00:29:32.675Z,38.8
2018-10-17T00:30:23.035Z,38.9
2018-10-17T00:31:14.565Z,38.8
2018-10-17T00:32:02.033Z,38.8
2018-10-17T00:32:52.898Z,38.8
2018-10-17T00:33:43.512Z,38.8
2018-10-17T00:34:32.269Z,38.8
2018-10-17T00:35:22.738Z,38.8
2018-10-17T00:36:13.165Z,38.8
2018-10-17T00:37:04.403Z,38.8
2018-10-17T00:37:52.707Z,38.8
2018-10-17T00:38:43.351Z,38.8
2018-10-17T00:39:33.376Z,38.8
2018-10-17T00:40:24.537Z,38.8
2018-10-17T00:41:15.113Z,38.8
2018-10-17T00:42:03.856Z,38.8
2018-10-17T00:42:54.353Z,38.8
2018-10-17T00:43:43.968Z,38.8
2018-10-17T00:44:34.527Z,38.8
2018-10-17T00:45:24.386Z,38.7
2018-10-17T00:46:13.875Z,38.7
2018-10-17T00:47:04.776Z,38.7
2018-10-17T00:47:53.442Z,38.7
2018-10-17T00:48:44.353Z,38.7
2018-10-17T00:49:34.131Z,38.7
2018-10-17T00:50:24.194Z,38.7
2018-10-17T00:51:14.315Z,38.7
2018-10-17T00:52:03.575Z,38.7
2018-10-17T00:52:53.480Z,38.7
2018-10-17T00:53:44.274Z,38.7
2018-10-17T00:54:33.767Z,38.7
2018-10-17T00:55:25.097Z,38.7
2018-10-17T00:56:15.214Z,38.6
2018-10-17T00:57:04.142Z,38.6
2018-10-17T00:57:55.556Z,38.6
2018-10-17T00:58:44.518Z,38.6
2018-10-17T00:59:34.586Z,38.6
2018-10-17T01:00:25.482Z,38.6
2018-10-17T01:01:17.647Z,38.6
2018-10-17T01:02:05.059Z,38.6
2018-10-17T01:02:54.824Z,38.6
2018-10-17T01:03:45.459Z,38.6
2018-10-17T01:04:35.803Z,38.6
2018-10-17T01:05:26.401Z,38.6
2018-10-17T01:06:15.952Z,38.6
2018-10-17T01:07:07.046Z,38.6
2018-10-17T01:07:55.465Z,38.6
2018-10-17T01:08:46.353Z,38.6
2018-10-17T01:09:35.911Z,38.6
2018-10-17T01:10:25.697Z,38.6
2018-10-17T01:11:16.584Z,38.6
2018-10-17T01:12:05.893Z,38.6
2018-10-17T01:12:57.047Z,38.5
2018-10-17T01:13:45.076Z,38.6
2018-10-17T01:14:36.003Z,38.5
2018-10-17T01:15:25.783Z,38.5
2018-10-17T01:16:16.793Z,38.5
2018-10-17T01:17:06.794Z,38.5
2018-10-17T01:17:56.023Z,38.5
2018-10-17T01:18:46.513Z,38.4
2018-10-17T01:19:36.363Z,38.5
2018-10-17T01:20:26.457Z,38.5
2018-10-17T01:21:17.366Z,38.4
2018-10-17T01:22:07.125Z,38.4
2018-10-17T01:22:57.123Z,38.4
2018-10-17T01:23:46.963Z,38.4
2018-10-17T01:24:37.286Z,38.4
2018-10-17T01:25:26.543Z,38.4
2018-10-17T01:26:16.649Z,38.4
2018-10-17T01:27:07.198Z,38.4
2018-10-17T01:27:57.523Z,38.4
2018-10-17T01:28:45.890Z,38.4
2018-10-17T01:29:37.667Z,38.4
2018-10-17T01:30:27.392Z,38.4
2018-10-17T01:31:18.693Z,38.4
2018-10-17T01:32:07.014Z,38.4
2018-10-17T01:32:57.338Z,38.4
2018-10-17T01:33:47.384Z,38.4
2018-10-17T01:34:37.498Z,38.4
2018-10-17T01:35:27.214Z,38.4
2018-10-17T01:36:17.582Z,38.4
2018-10-17T01:37:08.575Z,38.4
2018-10-17T01:37:57.694Z,38.4
2018-10-17T01:38:48.041Z,38.4
2018-10-17T01:39:37.567Z,38.3
2018-10-17T01:40:27.424Z,38.3
2018-10-17T01:41:19.650Z,38.3
2018-10-17T01:42:07.539Z,38.3
2018-10-17T01:42:58.624Z,38.3
2018-10-17T01:43:48.431Z,38.3
2018-10-17T01:44:38.485Z,38.3
2018-10-17T01:45:27.924Z,38.3
2018-10-17T01:46:18.046Z,38.3
2018-10-17T01:47:09.566Z,38.3
2018-10-17T01:47:58.410Z,38.3
2018-10-17T01:48:48.219Z,38.3
2018-10-17T01:49:38.508Z,38.3
2018-10-17T01:50:29.168Z,38.3
2018-10-17T01:51:18.949Z,38.3
2018-10-17T01:52:08.993Z,38.3
2018-10-17T01:53:00.097Z,38.3
2018-10-17T01:53:48.921Z,38.3
2018-10-17T01:54:39.193Z,38.3
2018-10-17T01:55:29.273Z,38.3
2018-10-17T01:56:19.319Z,38.3
2018-10-17T01:57:09.453Z,38.3
2018-10-17T01:57:59.770Z,38.2
2018-10-17T01:58:49.521Z,38.3
2018-10-17T01:59:39.578Z,38.2
2018-10-17T02:00:29.941Z,38.2
2018-10-17T02:01:20.128Z,38.2
2018-10-17T02:02:10.258Z,38.2
2018-10-17T02:02:59.825Z,38.2
2018-10-17T02:03:49.640Z,38.2
2018-10-17T02:04:40.003Z,38.2
2018-10-17T02:05:29.450Z,38.2
2018-10-17T02:06:20.060Z,38.2
2018-10-17T02:07:10.381Z,38.1
2018-10-17T02:07:59.570Z,38.1
2018-10-17T02:08:50.054Z,38.1
2018-10-17T02:09:40.311Z,38.1
2018-10-17T02:10:29.812Z,38.1
2018-10-17T02:11:20.495Z,38.1
2018-10-17T02:12:09.950Z,38.1
2018-10-17T02:13:00.473Z,38.1
2018-10-17T02:13:50.883Z,38.1
2018-10-17T02:14:39.567Z,38.1
2018-10-17T02:15:30.701Z,38.1
2018-10-17T02:16:21.084Z,38.1
2018-10-17T02:17:11.952Z,38.1
2018-10-17T02:18:00.924Z,38.1
2018-10-17T02:18:50.964Z,38.1
2018-10-17T02:19:41.359Z,38.1
2018-10-17T02:20:31.096Z,38.1
2018-10-17T02:21:20.604Z,38.1
2018-10-17T02:22:11.219Z,38.1
2018-10-17T02:23:01.097Z,38.1
2018-10-17T02:23:50.849Z,38.1
2018-10-17T02:24:41.782Z,38.1
2018-10-17T02:25:30.415Z,38
2018-10-17T02:26:21.100Z,38
2018-10-17T02:27:10.833Z,38
2018-10-17T02:28:01.191Z,38
2018-10-17T02:28:50.939Z,38
2018-10-17T02:29:41.546Z,38
2018-10-17T02:30:31.410Z,38
2018-10-17T02:31:23.276Z,38
2018-10-17T02:32:11.644Z,38
2018-10-17T02:33:01.267Z,38
2018-10-17T02:33:52.196Z,37.9
2018-10-17T02:34:41.946Z,37.9
2018-10-17T02:35:31.398Z,37.9
2018-10-17T02:36:21.837Z,37.9
2018-10-17T02:37:14.046Z,37.9
2018-10-17T02:38:02.153Z,37.9
2018-10-17T02:38:51.116Z,37.9
2018-10-17T02:39:41.791Z,37.9
2018-10-17T02:40:32.105Z,37.9
2018-10-17T02:41:23.444Z,37.9
2018-10-17T02:42:12.209Z,37.9
2018-10-17T02:43:02.331Z,37.9
2018-10-17T02:43:52.547Z,37.9
2018-10-17T02:44:42.685Z,37.9
2018-10-17T02:45:32.761Z,37.9
2018-10-17T02:46:22.280Z,37.9
2018-10-17T02:47:15.023Z,37.9
2018-10-17T02:48:02.377Z,37.9
2018-10-17T02:48:53.122Z,37.9
2018-10-17T02:49:42.988Z,37.9
2018-10-17T02:50:33.110Z,37.9
2018-10-17T02:51:23.117Z,37.9
2018-10-17T02:52:13.726Z,37.9
2018-10-17T02:53:04.819Z,37.8
2018-10-17T02:53:53.554Z,37.8
2018-10-17T02:54:42.777Z,37.9
2018-10-17T02:55:33.673Z,37.8
2018-10-17T02:56:23.279Z,37.9
2018-10-17T02:57:14.071Z,37.8
2018-10-17T02:58:03.316Z,37.8
2018-10-17T02:58:54.772Z,37.8
2018-10-17T02:59:43.195Z,37.8
2018-10-17T03:00:34.134Z,37.9
2018-10-17T03:01:24.112Z,37.9
2018-10-17T03:02:13.401Z,37.9
2018-10-17T03:03:03.761Z,37.9
2018-10-17T03:03:54.360Z,37.9
2018-10-17T03:04:43.609Z,37.9
2018-10-17T03:05:34.558Z,37.9
2018-10-17T03:06:24.492Z,37.8
2018-10-17T03:07:15.676Z,37.8
2018-10-17T03:08:04.621Z,37.8
2018-10-17T03:08:54.360Z,37.8
2018-10-17T03:09:44.454Z,37.8
2018-10-17T03:10:34.532Z,37.8
2018-10-17T03:11:24.785Z,37.8
2018-10-17T03:12:14.959Z,37.8
2018-10-17T03:13:06.436Z,37.8
2018-10-17T03:13:55.028Z,37.8
2018-10-17T03:14:44.847Z,37.7
2018-10-17T03:15:35.235Z,37.7
2018-10-17T03:16:25.099Z,37.7
2018-10-17T03:17:16.932Z,37.7
2018-10-17T03:18:05.366Z,37.6
2018-10-17T03:18:55.941Z,37.6
2018-10-17T03:19:45.416Z,37.6
2018-10-17T03:20:35.291Z,37.6
2018-10-17T03:21:25.658Z,37.6
2018-10-17T03:22:15.203Z,37.6
2018-10-17T03:23:07.522Z,37.7
2018-10-17T03:23:55.226Z,37.8
2018-10-17T03:24:45.898Z,37.8
2018-10-17T03:25:36.972Z,37.8
2018-10-17T03:26:26.095Z,37.9
2018-10-17T03:27:15.748Z,37.9
2018-10-17T03:28:07.132Z,37.9
2018-10-17T03:28:56.244Z,37.9
2018-10-17T03:29:45.889Z,37.9
2018-10-17T03:30:36.341Z,37.9
2018-10-17T03:31:28.145Z,37.9
2018-10-17T03:32:16.503Z,37.9
2018-10-17T03:33:06.190Z,37.9
2018-10-17T03:33:56.512Z,37.9
2018-10-17T03:34:46.682Z,37.9
2018-10-17T03:35:36.758Z,37.9
2018-10-17T03:36:27.107Z,37.9
2018-10-17T03:37:17.983Z,37.9
2018-10-17T03:38:06.661Z,38
2018-10-17T03:38:57.267Z,37.9
2018-10-17T03:39:47.063Z,37.9
2018-10-17T03:40:37.627Z,37.9
2018-10-17T03:41:26.960Z,37.9
2018-10-17T03:42:17.082Z,37.9
2018-10-17T03:43:06.840Z,37.9
2018-10-17T03:43:57.350Z,37.9
2018-10-17T03:44:47.755Z,38
2018-10-17T03:45:37.817Z,37.9
2018-10-17T03:46:27.224Z,38
2018-10-17T03:47:19.711Z,37.9
2018-10-17T03:48:07.049Z,37.9
2018-10-17T03:48:57.944Z,37.9
2018-10-17T03:49:47.960Z,37.9
2018-10-17T03:50:37.655Z,37.9
2018-10-17T03:51:27.607Z,38
2018-10-17T03:52:18.227Z,37.9
2018-10-17T03:53:09.225Z,37.9
2018-10-17T03:53:58.293Z,37.9
2018-10-17T03:54:48.419Z,37.9
2018-10-17T03:55:37.892Z,37.9
2018-10-17T03:56:27.901Z,37.9
2018-10-17T03:57:17.119Z,37.9
2018-10-17T03:58:08.019Z,37.9
2018-10-17T03:58:59.686Z,37.9
2018-10-17T03:59:49.583Z,37.9
2018-10-17T04:00:38.512Z,37.9
2018-10-17T04:01:27.707Z,37.9
2018-10-17T04:02:18.954Z,37.9
2018-10-17T04:03:10.034Z,37.9
2018-10-17T04:03:58.736Z,37.9
2018-10-17T04:04:48.207Z,37.9
2018-10-17T04:05:39.384Z,37.9
2018-10-17T04:06:29.538Z,37.9
2018-10-17T04:07:20.195Z,37.9
2018-10-17T04:08:09.365Z,37.9
2018-10-17T04:08:59.378Z,37.9
2018-10-17T04:09:49.185Z,37.9
2018-10-17T04:10:38.911Z,37.9
2018-10-17T04:11:28.157Z,37.9
2018-10-17T04:12:18.756Z,37.9
2018-10-17T04:13:11.094Z,37.9
2018-10-17T04:13:59.720Z,37.9
2018-10-17T04:14:49.234Z,37.9
2018-10-17T04:15:39.372Z,37.9
2018-10-17T04:16:29.890Z,37.9
2018-10-17T04:17:20.467Z,37.9
2018-10-17T04:18:09.789Z,37.9
2018-10-17T04:19:00.440Z,37.9
2018-10-17T04:19:50.202Z,37.9
2018-10-17T04:20:40.347Z,37.9
2018-10-17T04:21:29.146Z,37.9
2018-10-17T04:22:20.098Z,37.8
2018-10-17T04:23:10.796Z,37.8
2018-10-17T04:23:59.958Z,37.8
2018-10-17T04:24:50.040Z,37.8
2018-10-17T04:25:40.374Z,37.8
2018-10-17T04:26:29.735Z,37.8
2018-10-17T04:27:20.151Z,37.8
2018-10-17T04:28:10.242Z,37.8
2018-10-17T04:29:01.140Z,37.8
2018-10-17T04:29:50.595Z,37.8
2018-10-17T04:30:40.365Z,37.8
2018-10-17T04:31:30.744Z,37.8
2018-10-17T04:32:20.263Z,37.8
2018-10-17T04:33:10.294Z,37.8
2018-10-17T04:34:00.909Z,37.8
2018-10-17T04:34:51.351Z,37.8
2018-10-17T04:35:40.791Z,37.8
2018-10-17T04:36:30.546Z,37.8
2018-10-17T04:54:21.648Z,37.7
2018-10-17T04:55:12.735Z,37.7
2018-10-17T04:56:01.220Z,37.7
2018-10-17T04:56:51.916Z,37.7
2018-10-17T04:57:41.359Z,37.7
2018-10-17T04:58:31.701Z,37.7
2018-10-17T04:59:23.015Z,37.6
2018-10-17T05:00:11.985Z,37.6
2018-10-17T05:01:03.270Z,37.6
2018-10-17T05:01:52.234Z,37.6
2018-10-17T05:02:41.719Z,37.7
2018-10-17T05:03:31.502Z,37.6
2018-10-17T05:04:21.674Z,37.6
2018-10-17T05:05:14.007Z,37.6
2018-10-17T05:06:02.515Z,37.6
2018-10-17T05:06:53.217Z,37.6
2018-10-17T05:07:42.362Z,37.6
2018-10-17T05:08:32.697Z,37.6
2018-10-17T05:09:22.748Z,37.6
2018-10-17T05:10:12.869Z,37.6
2018-10-17T05:11:02.964Z,37.6
2018-10-17T05:11:52.650Z,37.6
2018-10-17T05:12:42.703Z,37.6
2018-10-17T05:13:32.818Z,37.6
2018-10-17T05:14:22.577Z,37.6
2018-10-17T05:15:13.465Z,37.6
2018-10-17T05:16:02.982Z,37.6
2018-10-17T05:16:52.587Z,37.6
2018-10-17T05:17:42.799Z,37.6
2018-10-17T05:18:32.868Z,37.6
2018-10-17T05:19:22.974Z,37.6
2018-10-17T05:20:13.558Z,37.6
2018-10-17T05:21:03.339Z,37.6
2018-10-17T05:21:53.121Z,37.6
2018-10-17T05:22:43.199Z,37.6
2018-10-17T05:23:33.513Z,37.6
2018-10-17T05:24:23.011Z,37.6
2018-10-17T05:25:15.664Z,37.6
2018-10-17T05:26:02.828Z,37.5
2018-10-17T05:26:53.771Z,37.5
2018-10-17T05:27:44.115Z,37.5
2018-10-17T05:28:34.215Z,37.5
2018-10-17T05:29:23.691Z,37.6
2018-10-17T05:30:13.718Z,37.6
2018-10-17T05:31:04.968Z,37.5
2018-10-17T05:31:53.878Z,37.5
2018-10-17T05:32:44.181Z,37.5
2018-10-17T05:33:34.533Z,37.5
2018-10-17T05:34:24.605Z,37.5
2018-10-17T05:35:16.105Z,37.5
2018-10-17T05:36:04.443Z,37.5
2018-10-17T05:36:54.709Z,37.5
2018-10-17T05:37:47.078Z,37.5
2018-10-17T05:38:34.347Z,37.4
2018-10-17T05:39:24.376Z,37.4
2018-10-17T05:40:14.998Z,37.4
2018-10-17T05:41:04.754Z,37.4
2018-10-17T05:41:54.821Z,37.4
2018-10-17T05:42:44.641Z,37.4
2018-10-17T05:43:34.687Z,37.4
2018-10-17T05:44:25.484Z,37.4
2018-10-17T05:45:14.552Z,37.4
2018-10-17T05:46:05.706Z,37.4
2018-10-17T05:46:55.844Z,37.4
2018-10-17T05:47:45.274Z,37.4
2018-10-17T05:48:34.801Z,37.4
2018-10-17T05:49:25.423Z,37.4
2018-10-17T05:50:15.279Z,37.4
2018-10-17T05:51:05.315Z,37.4
2018-10-17T05:51:55.573Z,37.4
2018-10-17T05:52:45.633Z,37.4
2018-10-17T05:53:36.012Z,37.4
2018-10-17T05:54:25.471Z,37.4
2018-10-17T05:55:18.128Z,37.4
2018-10-17T05:56:05.349Z,37.4
2018-10-17T05:56:56.225Z,37.4
2018-10-17T05:57:45.727Z,37.4
2018-10-17T05:58:36.062Z,37.4
2018-10-17T05:59:26.501Z,37.4
2018-10-17T06:00:16.033Z,37.3
2018-10-17T06:01:07.298Z,37.4
2018-10-17T06:01:58.079Z,37.4
2018-10-17T06:02:46.534Z,37.3
2018-10-17T06:03:36.398Z,37.3
2018-10-17T06:04:26.881Z,37.3
2018-10-17T06:05:18.494Z,37.3
2018-10-17T06:06:06.627Z,37.3
2018-10-17T06:06:57.396Z,37.3
2018-10-17T06:07:46.760Z,37.3
2018-10-17T06:08:37.113Z,37.3
2018-10-17T06:09:26.860Z,37.3
2018-10-17T06:10:18.548Z,37.3
2018-10-17T06:11:08.258Z,37.3
2018-10-17T06:11:57.073Z,37.3
2018-10-17T06:12:47.112Z,37.3
2018-10-17T06:13:37.168Z,37.3
2018-10-17T06:14:27.265Z,37.3
2018-10-17T06:15:16.166Z,37.3
2018-10-17T06:16:07.652Z,37.3
2018-10-17T06:16:58.198Z,37.3
2018-10-17T06:17:48.825Z,37.3
2018-10-17T06:18:37.960Z,37.3
2018-10-17T06:19:28.428Z,37.3
2018-10-17T06:20:18.891Z,37.3
2018-10-17T06:21:08.293Z,37.3
2018-10-17T06:21:58.997Z,36.1
2018-10-17T06:22:48.282Z,25.2
2018-10-17T06:23:38.100Z,33.1
2018-10-17T06:24:28.277Z,39.8
2018-10-17T06:25:19.279Z,41.7
2018-10-17T06:26:08.064Z,42.1
2018-10-17T06:26:58.221Z,42.1
2018-10-17T06:27:48.189Z,41.9
2018-10-17T06:28:38.336Z,41.6
2018-10-17T06:29:28.177Z,41.4
2018-10-17T06:30:18.447Z,41.2
2018-10-17T06:31:08.280Z,41.1
2018-10-17T06:31:58.969Z,40.9
2018-10-17T06:32:49.036Z,40.8
2018-10-17T06:33:38.744Z,40.8
2018-10-17T06:34:29.292Z,40.6
2018-10-17T06:35:20.698Z,40.6
2018-10-17T06:36:08.814Z,40.5
2018-10-17T06:36:59.188Z,40.4
2018-10-17T06:37:49.213Z,40.4
2018-10-17T06:38:38.997Z,40.3
2018-10-17T06:39:29.395Z,40.2
2018-10-17T06:40:19.475Z,40.2
2018-10-17T06:41:10.368Z,40.1
2018-10-17T06:41:58.959Z,38
2018-10-17T06:42:49.877Z,40.8
2018-10-17T06:43:41.214Z,46.6
2018-10-17T06:44:29.461Z,48.4
2018-10-17T06:45:19.512Z,47.3
2018-10-17T06:46:09.602Z,45.4
2018-10-17T06:47:00.311Z,44.8
2018-10-17T06:47:49.933Z,45.2
2018-10-17T06:48:39.501Z,46.1
2018-10-17T06:49:29.829Z,47.1
2018-10-17T06:50:20.184Z,47.9
2018-10-17T06:51:11.229Z,48.4
2018-10-17T06:52:00.276Z,48.6
2018-10-17T06:52:50.316Z,48.6
2018-10-17T06:53:40.237Z,48.6
2018-10-17T06:54:31.986Z,48.8
2018-10-17T06:55:21.274Z,49.1
2018-10-17T06:56:09.991Z,49.4
2018-10-17T06:57:00.624Z,49.6
2018-10-17T06:57:50.783Z,49.8
2018-10-17T06:58:40.772Z,50.1
2018-10-17T06:59:30.257Z,50.2
2018-10-17T07:00:20.490Z,50.3
2018-10-17T07:01:12.614Z,50.4
2018-10-17T07:02:03.201Z,50.6
2018-10-17T07:02:50.178Z,50.8
2018-10-17T07:03:41.123Z,50.9
2018-10-17T07:04:31.165Z,51.1
2018-10-17T07:05:21.544Z,51.2
2018-10-17T07:06:11.305Z,51.3
2018-10-17T07:07:01.088Z,51.4
2018-10-17T07:07:50.908Z,51.6
2018-10-17T07:08:42.101Z,51.8
2018-10-17T07:09:30.809Z,51.9
2018-10-17T07:10:21.290Z,52
2018-10-17T07:11:11.523Z,52.2
2018-10-17T07:12:01.748Z,52.3
2018-10-17T07:13:41.847Z,52.6
2018-10-17T07:14:31.597Z,52.7
2018-10-17T07:15:22.505Z,52.8
2018-10-17T07:16:11.223Z,52.9
2018-10-17T07:17:02.984Z,53.1
2018-10-17T07:17:51.585Z,53.2
2018-10-17T07:18:41.656Z,53.3
2018-10-17T07:19:32.070Z,53.4
2018-10-17T07:20:22.591Z,53.6
2018-10-17T07:21:12.382Z,53.8
2018-10-17T07:22:01.690Z,53.9
2018-10-17T07:22:52.077Z,54
2018-10-17T07:23:42.271Z,54.1
2018-10-17T07:24:32.366Z,54.3
2018-10-17T07:25:23.095Z,54.4
2018-10-17T07:26:12.753Z,54.5
2018-10-17T07:27:02.852Z,54.7
2018-10-17T07:27:51.955Z,54.8
2018-10-17T07:28:43.291Z,54.9
2018-10-17T07:29:36.299Z,55.1
2018-10-17T07:30:22.572Z,55.3
2018-10-17T07:31:14.442Z,55.3
2018-10-17T07:32:02.909Z,55.5
2018-10-17T07:32:52.407Z,55.6
2018-10-17T07:33:43.084Z,55.8
2018-10-17T07:34:33.059Z,55.9
2018-10-17T07:35:22.817Z,56.1
2018-10-17T07:36:15.256Z,56.1
2018-10-17T07:37:03.232Z,56.3
2018-10-17T07:37:53.045Z,56.4
2018-10-17T07:38:43.214Z,56.6
2018-10-17T07:39:32.974Z,56.8
2018-10-17T07:40:23.249Z,56.9
2018-10-17T07:41:13.362Z,57.1
2018-10-17T07:42:04.072Z,57.2
2018-10-17T07:42:53.694Z,57.3
2018-10-17T07:43:43.225Z,57.4
2018-10-17T07:44:33.884Z,57.6
2018-10-17T07:46:14.013Z,57.9
2018-10-17T07:47:04.314Z,58.1
2018-10-17T07:47:54.063Z,58.2
2018-10-17T07:48:44.136Z,58.3
2018-10-17T07:49:33.899Z,58.4
2018-10-17T07:50:23.995Z,58.6
2018-10-17T07:51:14.283Z,58.8
2018-10-17T07:52:04.430Z,58.9
2018-10-17T07:52:54.403Z,59
2018-10-17T07:53:45.471Z,59.1
2018-10-17T07:54:34.836Z,59.3
2018-10-17T07:55:24.876Z,59.4
2018-10-17T07:56:14.965Z,59.6
2018-10-17T07:57:04.742Z,59.7
2018-10-17T07:57:55.101Z,59.9
2018-10-17T07:58:44.897Z,60
2018-10-17T07:59:35.381Z,60.1
2018-10-17T08:00:25.666Z,60.3
2018-10-17T08:01:14.478Z,60.4
2018-10-17T08:02:05.075Z,60.5
2018-10-17T08:02:54.963Z,60.7
2018-10-17T08:03:45.212Z,60.8
2018-10-17T08:04:34.995Z,60.9
2018-10-17T08:05:25.358Z,61.1
2018-10-17T08:06:16.865Z,61.2
2018-10-17T08:07:05.580Z,61.3
2018-10-17T08:07:55.546Z,61.4
2018-10-17T08:08:45.318Z,61.6
2018-10-17T08:09:35.957Z,61.8
2018-10-17T08:10:25.787Z,61.9
2018-10-17T08:11:16.334Z,62
2018-10-17T08:12:07.531Z,62.1
2018-10-17T08:12:56.285Z,62.3
2018-10-17T08:13:45.957Z,62.4
2018-10-17T08:14:35.742Z,62.6
2018-10-17T08:15:25.509Z,62.7
2018-10-17T08:16:16.177Z,62.8
2018-10-17T08:17:05.364Z,62.9
2018-10-17T08:17:57.102Z,63.1
2018-10-17T08:18:46.647Z,63.2
2018-10-17T08:19:35.812Z,63.3
2018-10-17T08:20:26.519Z,63.4
2018-10-17T08:21:17.449Z,63.5
2018-10-17T08:22:06.934Z,63.6
2018-10-17T08:22:55.327Z,63.8
2018-10-17T08:23:46.788Z,63.8
2018-10-17T08:24:36.178Z,63.9
2018-10-17T08:25:26.643Z,64.1
2018-10-17T08:26:17.177Z,64.2
2018-10-17T08:27:06.664Z,64.3
2018-10-17T08:27:57.306Z,64.4
2018-10-17T08:28:47.351Z,64.6
2018-10-17T08:29:37.141Z,64.6
2018-10-17T08:30:27.499Z,64.8
2018-10-17T08:31:17.571Z,64.9
2018-10-17T08:32:07.306Z,64.9
2018-10-17T08:32:57.378Z,65.1
2018-10-17T08:33:47.733Z,65.1
2018-10-17T08:34:37.495Z,65.3
2018-10-17T08:35:29.835Z,65.4
2018-10-17T08:36:20.811Z,65.4
2018-10-17T08:37:15.262Z,65.6
2018-10-17T08:38:00.375Z,65.7
2018-10-17T08:38:48.101Z,65.8
2018-10-17T08:39:37.315Z,65.8
2018-10-17T08:40:27.925Z,65.9
2018-10-17T08:41:19.007Z,66
2018-10-17T08:42:08.036Z,66.1
2018-10-17T08:42:58.113Z,66.2
2018-10-17T08:43:48.527Z,66.2
2018-10-17T08:44:37.474Z,66.3
2018-10-17T08:45:27.824Z,66.3
2018-10-17T08:46:18.063Z,66.4
2018-10-17T08:47:08.208Z,66.4
2018-10-17T08:47:58.470Z,66.6
2018-10-17T08:48:48.560Z,66.6
2018-10-17T08:49:38.649Z,66.7
2018-10-17T08:50:28.680Z,66.8
2018-10-17T08:51:19.009Z,66.8
2018-10-17T08:52:09.092Z,66.8
2018-10-17T09:08:54.415Z,68.4
2018-10-17T09:09:43.929Z,68.6
2018-10-17T09:10:34.570Z,68.6
2018-10-17T09:11:24.900Z,68.7
2018-10-17T09:12:16.522Z,68.8
2018-10-17T09:13:04.769Z,68.8
2018-10-17T09:13:54.401Z,68.9
2018-10-17T09:14:44.809Z,68.9
2018-10-17T09:15:40.617Z,69
2018-10-17T09:16:25.813Z,69.1
2018-10-17T09:17:15.040Z,69.2
2018-10-17T09:18:06.193Z,69.3
2018-10-17T09:18:54.597Z,69.3
2018-10-17T09:19:48.170Z,69.4
2018-10-17T09:20:40.094Z,69.4
2018-10-17T09:21:33.982Z,69.4
2018-10-17T09:22:22.316Z,69.5
2018-10-17T09:23:05.169Z,69.6
2018-10-17T09:23:55.853Z,69.6
2018-10-17T09:24:45.301Z,69.7
2018-10-17T09:25:36.488Z,69.8
2018-10-17T09:26:25.196Z,69.9
2018-10-17T09:27:15.766Z,70
2018-10-17T09:28:06.562Z,70.1
2018-10-17T09:28:55.364Z,70.2
2018-10-17T09:29:45.927Z,70.3
2018-10-17T09:30:38.812Z,70.4
2018-10-17T09:31:26.349Z,70.4
2018-10-17T09:32:16.143Z,70.5
2018-10-17T09:33:05.923Z,70.6
2018-10-17T09:33:57.052Z,70.6
2018-10-17T09:34:45.760Z,70.7
2018-10-17T09:35:37.360Z,70.7
2018-10-17T09:36:27.041Z,70.8
2018-10-17T09:37:16.793Z,70.9
2018-10-17T09:38:06.851Z,70.9
2018-10-17T09:38:56.838Z,71.1
2018-10-17T09:39:46.378Z,71.1
2018-10-17T09:40:37.278Z,71.2
2018-10-17T09:41:26.536Z,71.3
2018-10-17T09:42:18.850Z,71.3
2018-10-17T09:43:07.147Z,71.4
2018-10-17T09:43:57.226Z,71.5
2018-10-17T09:44:47.367Z,71.6
2018-10-17T09:45:36.851Z,71.6
2018-10-17T09:46:26.662Z,71.7
2018-10-17T09:47:17.505Z,71.8
2018-10-17T09:48:08.758Z,71.9
2018-10-17T09:48:57.432Z,71.9
2018-10-17T09:49:46.948Z,72.1
2018-10-17T09:50:37.160Z,72.1
2018-10-17T09:51:27.845Z,72.2
2018-10-17T09:52:19.145Z,72.3
2018-10-17T09:53:08.168Z,72.3
2018-10-17T09:53:58.630Z,72.4
2018-10-17T09:54:48.086Z,72.4
2018-10-17T09:55:38.138Z,72.5
2018-10-17T09:56:28.290Z,72.6
2018-10-17T09:57:17.392Z,72.6
2018-10-17T09:58:08.584Z,72.6
2018-10-17T09:58:58.377Z,72.8
2018-10-17T09:59:47.287Z,72.8
2018-10-17T10:00:38.215Z,72.8
2018-10-17T10:01:28.000Z,72.9
2018-10-17T10:02:19.433Z,73
2018-10-17T10:03:08.707Z,73
2018-10-17T10:03:59.398Z,73.1
2018-10-17T10:04:48.256Z,73.2
2018-10-17T10:05:39.187Z,73.3
2018-10-17T10:06:28.492Z,73.4
2018-10-17T10:07:18.723Z,73.4
2018-10-17T10:08:08.776Z,73.4
2018-10-17T10:08:58.822Z,73.4
2018-10-17T10:09:49.705Z,73.4
2018-10-17T10:10:38.672Z,73.4
2018-10-17T10:11:29.046Z,73.5
2018-10-17T10:12:20.821Z,73.5
2018-10-17T10:13:09.402Z,73.6
2018-10-17T10:14:00.078Z,73.6
2018-10-17T10:14:49.858Z,73.6
2018-10-17T10:15:38.912Z,73.6
2018-10-17T10:16:29.849Z,73.6
2018-10-17T10:17:20.196Z,73.7
2018-10-17T10:18:08.978Z,73.8
2018-10-17T10:18:59.891Z,73.8
2018-10-17T10:19:49.938Z,73.9
2018-10-17T10:20:40.025Z,73.9
2018-10-17T10:21:29.545Z,73.9
2018-10-17T10:22:20.582Z,73.9
2018-10-17T10:23:11.283Z,73.9
2018-10-17T10:24:00.488Z,73.9
2018-10-17T10:24:52.181Z,74
2018-10-17T10:25:39.235Z,74.1
2018-10-17T10:26:29.908Z,74.1
2018-10-17T10:27:20.614Z,74.2
2018-10-17T10:28:12.434Z,74.3
2018-10-17T10:29:00.343Z,74.3
2018-10-17T10:29:51.880Z,74.4
2018-10-17T10:30:40.196Z,74.4
2018-10-17T10:31:30.808Z,74.4
2018-10-17T10:32:20.632Z,74.4
2018-10-17T10:33:11.301Z,74.4
2018-10-17T10:34:01.270Z,74.5
2018-10-17T10:34:51.019Z,74.5
2018-10-17T10:35:40.851Z,74.6
2018-10-17T10:36:30.935Z,74.6
2018-10-17T10:37:20.675Z,74.6
2018-10-17T10:38:11.332Z,74.6
2018-10-17T10:39:01.107Z,74.7
2018-10-17T10:39:51.512Z,74.8
2018-10-17T10:40:42.872Z,74.8
2018-10-17T10:41:31.460Z,74.8
2018-10-17T10:42:21.566Z,74.8
2018-10-17T10:43:11.707Z,74.8
2018-10-17T10:44:02.399Z,74.8
2018-10-17T10:44:52.377Z,74.8
2018-10-17T10:45:43.297Z,74.7
2018-10-17T10:46:31.875Z,74.7
2018-10-17T10:47:21.668Z,74.7
2018-10-17T10:48:13.614Z,74.8
2018-10-17T10:49:02.549Z,74.8
2018-10-17T10:49:52.220Z,74.9
2018-10-17T10:50:42.205Z,74.9
2018-10-17T10:51:33.265Z,74.9
2018-10-17T10:52:22.054Z,75
2018-10-17T10:53:13.084Z,75.1
2018-10-17T10:54:03.151Z,75.1
2018-10-17T10:54:51.989Z,75.1
2018-10-17T10:55:42.259Z,75.1
2018-10-17T10:56:33.145Z,75.1
2018-10-17T10:57:23.072Z,75.1
2018-10-17T10:58:14.961Z,75
2018-10-17T10:59:04.098Z,75.1
2018-10-17T10:59:52.920Z,75.1
2018-10-17T11:00:42.911Z,75.1
2018-10-17T11:01:32.728Z,75.1
2018-10-17T11:02:23.442Z,75.1
2018-10-17T11:03:14.457Z,75.2
2018-10-17T11:04:02.606Z,75.2
2018-10-17T11:04:54.306Z,75.3
2018-10-17T11:05:46.479Z,75.3
2018-10-17T11:06:33.341Z,75.3
2018-10-17T11:07:23.376Z,75.3
2018-10-17T11:08:14.665Z,75.3
2018-10-17T11:09:03.539Z,75.3
2018-10-17T11:09:53.605Z,75.3
2018-10-17T11:10:43.159Z,75.3
2018-10-17T11:11:33.711Z,75.3
2018-10-17T11:12:23.808Z,75.4
2018-10-17T11:13:13.582Z,75.4
2018-10-17T11:14:06.519Z,75.4
2018-10-17T11:14:58.164Z,75.4
2018-10-17T11:15:44.100Z,75.5
2018-10-17T11:16:33.531Z,75.5
2018-10-17T11:17:23.553Z,75.5
2018-10-17T11:18:14.230Z,75.6
2018-10-17T11:19:04.270Z,75.6
2018-10-17T11:19:54.335Z,75.6
2018-10-17T11:20:44.122Z,75.6
2018-10-17T11:21:33.632Z,75.6
2018-10-17T11:22:24.830Z,75.6
2018-10-17T11:23:16.062Z,75.6
2018-10-17T11:24:04.347Z,75.6
2018-10-17T11:24:54.135Z,75.6
2018-10-17T11:25:44.470Z,75.6
2018-10-17T11:26:34.835Z,75.6
2018-10-17T11:27:25.024Z,75.6
2018-10-17T11:28:14.372Z,75.6
2018-10-17T11:29:05.570Z,75.6
2018-10-17T11:29:54.789Z,75.5
2018-10-17T11:30:44.557Z,75.5
2018-10-17T11:31:35.330Z,75.5
2018-10-17T11:32:25.295Z,75.4
2018-10-17T11:33:17.244Z,75.4
2018-10-17T11:34:05.439Z,75.4
2018-10-17T11:34:55.757Z,75.4
2018-10-17T11:35:45.524Z,75.4
2018-10-17T11:36:35.638Z,75.4
2018-10-17T11:37:26.911Z,75.4
2018-10-17T11:38:15.437Z,75.4
2018-10-17T11:39:06.821Z,75.4
2018-10-17T11:39:56.004Z,75.4
2018-10-17T11:40:48.147Z,75.5
2018-10-17T11:41:37.862Z,75.5
2018-10-17T11:42:25.712Z,75.6
2018-10-17T11:43:16.336Z,75.5
2018-10-17T11:44:06.187Z,75.6
2018-10-17T11:44:56.289Z,75.6
2018-10-17T11:45:46.254Z,75.6
2018-10-17T11:46:36.371Z,75.6
2018-10-17T11:47:26.119Z,75.6
2018-10-17T11:48:16.129Z,75.6
2018-10-17T11:49:06.256Z,75.6
2018-10-17T11:49:56.285Z,75.6
2018-10-17T11:50:46.889Z,75.6
2018-10-17T11:51:36.916Z,75.6
2018-10-17T11:52:26.464Z,75.6
2018-10-17T11:53:17.826Z,75.6
2018-10-17T11:54:06.880Z,75.6
2018-10-17T11:54:56.630Z,75.6
2018-10-17T11:55:50.812Z,75.6
2018-10-17T11:56:38.087Z,75.6
2018-10-17T11:57:26.109Z,75.6
2018-10-17T11:58:18.229Z,75.6
2018-10-17T11:59:06.757Z,75.5
2018-10-17T11:59:56.884Z,75.4